Time;durP1;ratioP1;P1;durP2;ratioP2;P2;SDS_P1;SDS_P2;PMS_P1;PMS_P2;Temp;Humidity;BMP_temperature;BMP_pressure;BME280_temperature;BME280_humidity;BME280_pressure;Samples;Min_cycle;Max_cycle;Signal;HPM_P1;HPM_P2
2021/08/29 00:00:29;;;;;;;18.20;14.88;;;;;;;14.94;72.62;102417.13;5035359;28;20045;-81
2021/08/29 00:02:55;;;;;;;24.88;16.42;;;;;;;14.69;73.17;102404.72;5015289;28;20103;-81
2021/08/29 00:05:21;;;;;;;22.45;16.75;;;;;;;14.76;73.32;102423.78;5031606;28;20065;-81
2021/08/29 00:07:47;;;;;;;22.02;15.75;;;;;;;14.66;73.69;102402.16;5032713;28;20053;-81
2021/08/29 00:10:13;;;;;;;21.40;16.23;;;;;;;14.64;73.97;102422.34;5032072;28;20462;-81
2021/08/29 00:12:41;;;;;;;21.67;17.55;;;;;;;14.61;74.12;102430.31;5031300;28;20062;-81
2021/08/29 00:15:08;;;;;;;21.95;16.20;;;;;;;14.56;74.51;102426.03;5031591;28;20048;-81
2021/08/29 00:17:34;;;;;;;23.70;15.68;;;;;;;14.53;74.41;102426.13;5032846;28;20046;-81
2021/08/29 00:20:00;;;;;;;22.88;17.30;;;;;;;14.50;74.15;102418.34;5032400;28;20056;-81
2021/08/29 00:22:26;;;;;;;19.40;16.45;;;;;;;14.54;74.11;102427.00;5031509;28;20452;-81
2021/08/29 00:24:52;;;;;;;21.58;16.58;;;;;;;14.44;74.52;102415.88;5027052;28;20048;-81
2021/08/29 00:27:18;;;;;;;20.10;16.15;;;;;;;14.24;74.62;102387.50;5032143;28;20047;-81
2021/08/29 00:29:44;;;;;;;20.77;15.70;;;;;;;14.29;74.59;102393.47;5031218;28;20049;-81
2021/08/29 00:32:12;;;;;;;20.77;16.52;;;;;;;14.23;75.11;102398.91;5031488;28;20056;-81
2021/08/29 00:34:38;;;;;;;20.27;16.60;;;;;;;14.38;75.00;102418.66;5031317;28;20111;-81
2021/08/29 00:37:04;;;;;;;21.13;15.60;;;;;;;14.23;74.51;102398.91;5032293;28;20049;-81
2021/08/29 00:39:30;;;;;;;21.48;15.40;;;;;;;14.31;74.27;102409.22;5031684;28;20076;-81
2021/08/29 00:41:56;;;;;;;19.33;14.30;;;;;;;14.35;74.45;102422.22;5032054;28;20045;-81
2021/08/29 00:44:22;;;;;;;20.33;14.20;;;;;;;14.33;74.18;102425.78;5032594;28;20083;-81
2021/08/29 00:46:48;;;;;;;18.98;14.20;;;;;;;14.14;74.41;102407.03;5035709;28;20099;-81
2021/08/29 00:49:18;;;;;;;18.63;14.38;;;;;;;14.19;74.70;102432.25;5035798;28;20045;-81
2021/08/29 00:51:46;;;;;;;19.65;14.15;;;;;;;14.06;74.88;102413.34;5035953;28;20092;-81
2021/08/29 00:54:12;;;;;;;23.70;16.95;;;;;;;14.14;74.89;102431.53;5035833;28;20053;-81
2021/08/29 00:56:38;;;;;;;20.48;16.27;;;;;;;13.97;74.96;102400.44;5036757;28;20060;-81
2021/08/29 00:59:04;;;;;;;22.05;14.65;;;;;;;13.92;75.12;102399.69;5035800;28;20049;-81
2021/08/29 01:01:38;;;;;;;21.25;15.00;;;;;;;14.04;75.17;102424.78;5035035;28;20512;-81
2021/08/29 01:04:09;;;;;;;20.75;15.88;;;;;;;13.90;75.92;102415.50;5035601;28;20144;-81
2021/08/29 01:06:57;;;;;;;22.35;17.17;;;;;;;13.80;76.22;102421.84;5055498;28;20060;-80
2021/08/29 01:09:24;;;;;;;22.05;15.38;;;;;;;13.63;76.55;102411.75;5060093;28;20029;-81
2021/08/29 01:11:53;;;;;;;19.27;14.98;;;;;;;13.70;76.48;102415.97;5055329;28;20054;-81
2021/08/29 01:14:23;;;;;;;20.40;14.07;;;;;;;13.72;76.94;102406.28;5036540;28;20045;-81
2021/08/29 01:16:52;;;;;;;16.88;13.57;;;;;;;13.65;76.48;102409.97;5019146;28;20363;-81
2021/08/29 01:19:25;;;;;;;16.05;12.93;;;;;;;13.65;76.44;102406.50;5035893;28;20091;-81
2021/08/29 01:21:53;;;;;;;20.65;13.90;;;;;;;13.56;76.48;102399.66;5034529;28;20049;-81
2021/08/29 01:24:22;;;;;;;17.00;14.05;;;;;;;13.56;76.57;102402.28;5031433;28;20042;-81
2021/08/29 01:26:56;;;;;;;19.90;14.77;;;;;;;13.53;76.50;102395.34;5034460;28;20046;-81
2021/08/29 01:29:27;;;;;;;19.15;13.20;;;;;;;13.57;76.58;102399.66;5034768;28;20041;-81
2021/08/29 01:31:54;;;;;;;18.40;14.48;;;;;;;13.42;76.91;102381.63;5035351;28;20054;-81
2021/08/29 01:34:20;;;;;;;19.35;14.88;;;;;;;13.49;76.67;102398.97;5036549;28;20056;-81
2021/08/29 01:36:52;;;;;;;17.05;13.10;;;;;;;13.60;76.51;102411.84;5040045;28;20050;-82
2021/08/29 01:39:22;;;;;;;17.52;14.63;;;;;;;13.49;76.97;102406.84;5035668;28;20107;-82
2021/08/29 01:41:50;;;;;;;15.85;13.27;;;;;;;13.37;77.32;102401.84;5034951;28;20057;-82
2021/08/29 01:44:17;;;;;;;19.77;14.25;;;;;;;13.22;77.72;102401.28;5034583;28;20049;-82
2021/08/29 01:46:44;;;;;;;16.60;12.68;;;;;;;13.12;77.76;102378.75;5034624;28;20046;-82
2021/08/29 01:49:11;;;;;;;18.88;13.57;;;;;;;13.19;78.29;102405.72;5033584;28;20045;-81
2021/08/29 01:51:39;;;;;;;19.80;13.85;;;;;;;13.04;78.09;102394.66;5034413;28;20045;-81
2021/08/29 01:54:05;;;;;;;18.98;14.43;;;;;;;13.10;78.21;102401.56;5034532;28;20521;-82
2021/08/29 01:56:31;;;;;;;16.60;13.15;;;;;;;13.16;77.99;102406.66;5032819;28;20453;-81
2021/08/29 01:58:57;;;;;;;19.70;14.07;;;;;;;13.15;77.88;102402.31;5032443;28;20053;-81
2021/08/29 02:01:23;;;;;;;18.35;13.82;;;;;;;13.04;77.69;102393.81;5033206;28;20087;-82
2021/08/29 02:03:50;;;;;;;17.48;13.55;;;;;;;12.79;77.77;102366.38;5034205;28;20045;-82
2021/08/29 02:06:36;;;;;;;17.27;14.25;;;;;;;13.08;78.28;102404.19;5033364;28;20567;-81
2021/08/29 02:09:06;;;;;;;21.77;14.18;;;;;;;12.98;78.20;102394.81;5034074;28;20144;-82
2021/08/29 02:11:39;;;;;;;19.67;13.35;;;;;;;13.00;78.51;102402.63;5033916;28;20072;-82
2021/08/29 02:14:10;;;;;;;18.38;13.93;;;;;;;13.00;78.53;102403.50;5034278;28;20057;-81
2021/08/29 02:16:42;;;;;;;15.48;13.10;;;;;;;13.02;78.32;102406.09;5033081;28;20041;-81
2021/08/29 02:19:09;;;;;;;17.48;13.73;;;;;;;13.02;77.82;102396.44;5033515;28;20442;-81
2021/08/29 02:21:36;;;;;;;16.98;12.57;;;;;;;13.07;77.54;102399.88;5033403;28;20509;-81
2021/08/29 02:24:03;;;;;;;19.95;14.48;;;;;;;13.00;77.77;102394.75;5033327;28;20049;-81
2021/08/29 02:26:30;;;;;;;18.23;14.25;;;;;;;13.05;78.18;102406.88;5032790;28;20057;-81
2021/08/29 02:28:57;;;;;;;17.20;13.55;;;;;;;12.94;77.89;102383.53;5033842;28;20045;-81
2021/08/29 02:31:25;;;;;;;17.33;12.90;;;;;;;12.98;77.64;102389.56;5015978;28;20064;-81
2021/08/29 02:33:51;;;;;;;17.50;13.85;;;;;;;12.98;78.00;102398.28;5033450;28;20048;-81
2021/08/29 02:36:19;;;;;;;16.35;14.13;;;;;;;12.90;77.78;102379.25;5032678;28;20505;-81
2021/08/29 02:38:48;;;;;;;19.55;13.77;;;;;;;12.69;78.41;102366.56;5015004;28;20057;-82
2021/08/29 02:41:15;;;;;;;19.42;13.20;;;;;;;12.93;77.91;102404.53;5025491;28;20046;-82
2021/08/29 02:43:43;;;;;;;20.05;13.60;;;;;;;12.72;78.13;102370.00;5033481;28;20057;-81
2021/08/29 02:46:09;;;;;;;17.00;13.18;;;;;;;12.92;78.15;102408.88;5015138;28;20049;-82
2021/08/29 02:48:36;;;;;;;16.90;12.73;;;;;;;12.88;78.06;102401.16;5032754;28;20119;-82
2021/08/29 02:51:03;;;;;;;16.80;13.40;;;;;;;12.89;78.48;102408.97;5033017;28;20049;-81
2021/08/29 02:53:30;;;;;;;18.75;14.20;;;;;;;12.92;77.69;102392.31;5033512;28;20045;-81
2021/08/29 02:55:59;;;;;;;17.77;13.90;;;;;;;12.87;77.94;102392.41;5032688;28;20053;-81
2021/08/29 02:58:27;;;;;;;17.40;14.25;;;;;;;12.85;78.33;102399.41;5032975;28;20076;-81
2021/08/29 03:00:53;;;;;;;17.33;12.30;;;;;;;12.71;78.07;102380.53;5036105;28;20507;-82
2021/08/29 03:03:19;;;;;;;17.48;13.45;;;;;;;12.79;77.92;102394.31;5037505;28;20490;-81
2021/08/29 03:05:45;;;;;;;16.42;13.85;;;;;;;12.73;78.30;102390.06;5033064;28;20045;-82
2021/08/29 03:08:11;;;;;;;17.52;13.35;;;;;;;12.59;78.32;102355.44;5031998;28;20046;-81
2021/08/29 03:10:40;;;;;;;16.75;12.68;;;;;;;12.72;78.28;102384.84;5015545;28;20056;-82
2021/08/29 03:13:09;;;;;;;18.48;13.45;;;;;;;12.72;78.19;102377.88;5032486;28;20406;-82
2021/08/29 03:15:35;;;;;;;15.60;12.23;;;;;;;12.84;77.97;102391.59;5032885;28;20472;-82
2021/08/29 03:18:02;;;;;;;16.33;12.40;;;;;;;12.88;77.91;102390.66;5014983;28;20045;-82
2021/08/29 03:20:28;;;;;;;20.60;12.30;;;;;;;12.90;77.89;102387.13;5032378;28;20037;-82
2021/08/29 03:22:55;;;;;;;19.27;12.13;;;;;;;12.89;78.12;102384.50;5032575;28;20049;-82
2021/08/29 03:25:21;;;;;;;16.42;11.90;;;;;;;12.73;77.65;102360.38;4998649;28;20076;-82
2021/08/29 03:27:47;;;;;;;17.05;12.05;;;;;;;12.64;78.19;102370.13;5030265;28;20050;-82
2021/08/29 03:30:14;;;;;;;17.58;12.07;;;;;;;12.74;78.07;102381.31;5033811;28;20037;-82
2021/08/29 03:32:42;;;;;;;16.80;12.23;;;;;;;12.68;78.00;102378.81;5031848;28;20033;-81
2021/08/29 03:35:09;;;;;;;15.60;13.10;;;;;;;12.66;78.59;102383.22;5057140;28;20029;-81
2021/08/29 03:37:35;;;;;;;14.10;10.88;;;;;;;12.53;78.35;102358.16;5024807;28;20079;-82
2021/08/29 03:40:05;;;;;;;16.83;12.30;;;;;;;12.67;78.61;102387.56;5035659;28;20445;-82
2021/08/29 03:42:32;;;;;;;17.52;12.60;;;;;;;12.71;78.39;102380.53;5034762;28;20042;-81
2021/08/29 03:45:00;;;;;;;16.05;11.15;;;;;;;12.63;78.36;102370.19;5015523;28;20064;-82
2021/08/29 03:47:27;;;;;;;12.77;9.68;;;;;;;12.63;78.32;102384.16;5031572;28;20124;-82
2021/08/29 03:49:53;;;;;;;15.15;10.63;;;;;;;12.64;78.33;102383.22;5032658;28;20084;-82
2021/08/29 03:52:20;;;;;;;14.90;10.60;;;;;;;12.69;78.18;102382.31;5032641;28;20049;-81
2021/08/29 03:54:47;;;;;;;15.13;11.43;;;;;;;12.64;78.59;102372.75;5032758;28;20050;-82
2021/08/29 03:57:14;;;;;;;15.93;11.82;;;;;;;12.61;78.79;102369.38;5034273;28;20056;-82
2021/08/29 03:59:41;;;;;;;14.13;11.48;;;;;;;12.63;78.67;102373.69;5036857;28;20046;-82
2021/08/29 04:02:07;;;;;;;13.80;11.75;;;;;;;12.52;78.08;102354.66;5016140;28;20091;-82
2021/08/29 04:04:34;;;;;;;13.27;11.05;;;;;;;12.54;78.29;102363.38;5014196;28;20115;-81
2021/08/29 04:07:05;;;;;;;16.00;12.25;;;;;;;12.38;78.64;102354.94;5014148;28;20042;-82
2021/08/29 04:09:35;;;;;;;14.77;12.15;;;;;;;12.38;78.89;102365.41;5014564;28;20045;-81
2021/08/29 04:12:02;;;;;;;17.17;12.50;;;;;;;12.29;79.24;102357.72;5031377;28;20050;-81
2021/08/29 04:14:29;;;;;;;17.90;12.52;;;;;;;11.86;79.35;102291.28;5034213;28;20049;-81
2021/08/29 04:16:57;;;;;;;18.73;13.18;;;;;;;12.28;79.80;102366.47;5039236;28;20060;-82
2021/08/29 04:19:25;;;;;;;17.38;12.57;;;;;;;12.27;79.37;102364.78;5034696;28;20046;-81
2021/08/29 04:21:54;;;;;;;18.30;14.13;;;;;;;12.12;79.67;102351.06;5037179;28;20483;-81
2021/08/29 04:24:21;;;;;;;16.92;12.70;;;;;;;12.01;79.88;102337.28;5056257;28;20050;-80
2021/08/29 04:26:48;;;;;;;17.77;12.93;;;;;;;12.20;79.41;102366.63;5055634;28;20049;-81
2021/08/29 04:29:14;;;;;;;17.23;12.90;;;;;;;11.98;79.53;102338.22;5054122;28;20072;-81
2021/08/29 04:31:46;;;;;;;18.73;12.82;;;;;;;12.16;79.50;102363.19;5036276;28;20414;-81
2021/08/29 04:34:12;;;;;;;17.88;12.20;;;;;;;12.15;80.33;102364.09;5018387;28;20080;-81
2021/08/29 04:36:38;;;;;;;20.10;12.63;;;;;;;12.14;79.36;102357.13;5036126;28;20478;-81
2021/08/29 04:39:07;;;;;;;18.33;11.88;;;;;;;12.13;79.51;102358.03;5036155;28;20052;-81
2021/08/29 04:41:34;;;;;;;15.32;11.80;;;;;;;12.05;79.53;102354.69;5034909;28;20556;-81
2021/08/29 04:44:01;;;;;;;16.05;11.25;;;;;;;11.90;79.43;102326.13;5034767;28;20038;-81
2021/08/29 04:46:28;;;;;;;16.00;11.77;;;;;;;12.04;79.86;102366.03;5035953;28;20045;-81
2021/08/29 04:48:54;;;;;;;15.23;12.20;;;;;;;12.01;79.93;102359.09;5036128;28;20061;-81
2021/08/29 04:51:20;;;;;;;14.88;11.93;;;;;;;11.98;80.24;102368.75;5027402;28;20494;-81
2021/08/29 04:53:46;;;;;;;15.35;12.68;;;;;;;11.91;80.66;102362.72;5035537;28;20052;-81
2021/08/29 04:56:12;;;;;;;16.40;12.52;;;;;;;11.87;80.95;102371.53;5035253;28;20445;-81
2021/08/29 04:58:38;;;;;;;21.35;13.02;;;;;;;11.75;80.87;102354.25;5035693;28;20127;-81
2021/08/29 05:01:04;;;;;;;20.60;13.25;;;;;;;11.75;80.73;102359.50;5035951;28;20482;-81
2021/08/29 05:03:29;;;;;;;17.80;13.15;;;;;;;11.62;80.86;102334.44;5035309;28;20053;-81
2021/08/29 05:05:59;;;;;;;16.75;12.52;;;;;;;11.88;80.86;102372.38;5016441;28;20498;-81
2021/08/29 05:08:24;;;;;;;15.77;11.38;;;;;;;11.91;80.25;102377.56;5035414;28;20072;-81
2021/08/29 05:10:50;;;;;;;16.50;12.20;;;;;;;11.89;80.20;102366.25;5035052;28;20475;-81
2021/08/29 05:13:16;;;;;;;16.10;12.02;;;;;;;11.93;80.08;102366.19;5035185;28;20398;-82
2021/08/29 05:15:43;;;;;;;16.27;11.90;;;;;;;11.72;79.89;102335.13;5034402;28;20482;-81
2021/08/29 05:18:08;;;;;;;15.88;12.30;;;;;;;11.84;79.97;102358.50;5016863;28;20057;-81
2021/08/29 05:20:34;;;;;;;18.30;12.35;;;;;;;11.85;80.16;102365.44;5017513;28;20045;-81
2021/08/29 05:23:01;;;;;;;20.55;12.57;;;;;;;11.85;80.47;102365.44;5035227;28;20490;-81
2021/08/29 05:25:27;;;;;;;18.13;12.93;;;;;;;11.89;80.28;102372.38;5033708;28;20415;-81
2021/08/29 05:27:53;;;;;;;18.45;12.73;;;;;;;11.91;79.99;102374.94;5034468;28;20417;-81
2021/08/29 05:30:19;;;;;;;14.57;11.43;;;;;;;11.95;79.59;102374.00;5034821;28;20401;-81
2021/08/29 05:32:45;;;;;;;15.32;12.20;;;;;;;11.66;79.71;102347.44;5032636;28;20050;-81
2021/08/29 05:35:11;;;;;;;14.20;11.27;;;;;;;11.95;79.47;102376.63;5036853;28;20071;-82
2021/08/29 05:37:37;;;;;;;15.65;11.07;;;;;;;11.98;79.54;102374.00;5036825;28;20058;-81
2021/08/29 05:40:04;;;;;;;17.52;11.13;;;;;;;12.01;78.90;102366.94;5036662;28;20045;-81
2021/08/29 05:42:30;;;;;;;17.33;11.77;;;;;;;12.13;78.81;102373.75;5035921;28;20056;-81
2021/08/29 05:44:58;;;;;;;16.80;10.93;;;;;;;12.06;78.75;102358.16;5035233;28;20132;-81
2021/08/29 05:47:24;;;;;;;15.57;11.27;;;;;;;12.23;78.59;102376.16;5035074;28;20038;-81
2021/08/29 05:49:50;;;;;;;19.70;11.60;;;;;;;12.26;78.20;102356.03;5036001;28;20049;-80
2021/08/29 05:52:16;;;;;;;17.42;12.52;;;;;;;12.34;78.36;102363.75;5039868;28;20045;-81
2021/08/29 05:54:42;;;;;;;19.77;12.40;;;;;;;12.36;78.46;102368.97;5051978;28;20034;-80
2021/08/29 05:57:08;;;;;;;18.08;12.88;;;;;;;12.37;78.65;102362.84;5059250;28;20049;-80
2021/08/29 05:59:34;;;;;;;17.40;13.50;;;;;;;12.45;78.58;102366.16;5039099;28;20108;-81
2021/08/29 06:02:00;;;;;;;23.08;15.40;;;;;;;12.30;78.26;102352.47;5036627;28;20041;-81
2021/08/29 06:04:33;;;;;;;23.45;17.10;;;;;;;12.46;78.47;102363.53;5036808;28;20088;-81
2021/08/29 06:06:59;;;;;;;23.85;15.05;;;;;;;12.52;78.64;102366.91;5035609;28;20050;-82
2021/08/29 06:09:25;;;;;;;24.65;13.95;;;;;;;12.67;77.93;102377.09;5034432;28;20088;-81
2021/08/29 06:11:51;;;;;;;21.23;13.88;;;;;;;12.73;78.28;102370.84;5034275;28;20057;-81
2021/08/29 06:14:17;;;;;;;23.63;14.20;;;;;;;12.74;78.51;102372.59;5033791;28;20067;-81
2021/08/29 06:16:44;;;;;;;15.60;11.70;;;;;;;12.84;78.43;102375.88;5037751;28;20060;-81
2021/08/29 06:19:10;;;;;;;18.58;13.07;;;;;;;12.80;77.98;102373.34;5038427;28;20060;-82
2021/08/29 06:21:36;;;;;;;18.45;13.02;;;;;;;12.86;78.44;102371.47;5034857;28;20046;-81
2021/08/29 06:24:02;;;;;;;18.48;12.63;;;;;;;12.82;78.03;102353.19;5016067;28;20080;-79
2021/08/29 06:26:28;;;;;;;14.70;11.13;;;;;;;13.01;77.35;102349.31;5033917;28;20410;-79
2021/08/29 06:28:54;;;;;;;17.60;12.05;;;;;;;13.06;77.36;102342.19;5032674;28;20046;-80
2021/08/29 06:31:19;;;;;;;19.77;13.38;;;;;;;13.25;77.09;102361.00;5033850;28;20501;-80
2021/08/29 06:33:45;;;;;;;16.35;12.40;;;;;;;13.24;77.13;102347.06;5033773;28;20116;-80
2021/08/29 06:36:11;;;;;;;18.17;12.52;;;;;;;13.22;77.16;102340.97;5034254;28;20045;-81
2021/08/29 06:38:39;;;;;;;19.05;12.18;;;;;;;13.45;77.06;102363.19;5033565;28;20056;-81
2021/08/29 06:41:05;;;;;;;19.35;13.43;;;;;;;13.47;77.09;102369.28;5018194;28;20129;-81
2021/08/29 06:43:32;;;;;;;18.50;13.55;;;;;;;13.45;77.42;102374.56;5033508;28;20049;-81
2021/08/29 06:45:58;;;;;;;20.10;13.73;;;;;;;13.49;77.38;102366.59;5034210;28;20099;-81
2021/08/29 06:48:25;;;;;;;16.88;13.00;;;;;;;13.58;77.33;102375.13;5033594;28;20046;-81
2021/08/29 06:50:51;;;;;;;21.20;14.30;;;;;;;13.69;76.96;102368.75;5033615;28;20061;-81
2021/08/29 06:53:17;;;;;;;19.75;12.98;;;;;;;13.75;76.82;102379.09;5015951;28;20042;-81
2021/08/29 06:55:43;;;;;;;20.23;12.77;;;;;;;13.85;76.58;102370.09;5032623;28;20041;-81
2021/08/29 06:58:09;;;;;;;19.08;12.18;;;;;;;13.95;76.22;102373.34;5032426;28;20049;-81
2021/08/29 07:00:35;;;;;;;19.13;13.65;;;;;;;14.01;76.12;102370.59;5033404;28;20054;-81
2021/08/29 07:03:01;;;;;;;18.98;12.77;;;;;;;14.11;75.88;102378.22;5033641;28;20038;-81
2021/08/29 07:05:27;;;;;;;18.73;12.75;;;;;;;14.19;75.47;102374.47;5028387;28;20053;-81
2021/08/29 07:07:53;;;;;;;16.17;12.40;;;;;;;14.17;75.20;102363.16;5032774;28;20081;-80
2021/08/29 07:10:19;;;;;;;17.90;12.25;;;;;;;14.38;75.09;102379.25;5014747;28;20046;-81
2021/08/29 07:12:45;;;;;;;17.83;12.73;;;;;;;14.34;74.84;102360.09;5032528;28;20054;-81
2021/08/29 07:15:12;;;;;;;24.67;12.73;;;;;;;14.43;74.88;102379.09;5021990;28;20052;-81
2021/08/29 07:17:38;;;;;;;19.80;12.27;;;;;;;14.36;74.76;102358.25;4997841;28;20049;-81
2021/08/29 07:20:04;;;;;;;18.50;12.48;;;;;;;14.35;74.83;102332.03;5033088;28;20391;-81
2021/08/29 07:22:30;;;;;;;16.25;12.05;;;;;;;14.60;74.51;102357.63;5032835;28;20100;-79
2021/08/29 07:24:56;;;;;;;19.58;12.68;;;;;;;14.48;74.39;102340.47;5032543;28;20053;-80
2021/08/29 07:27:22;;;;;;;17.73;12.75;;;;;;;14.71;74.15;102351.19;5032245;28;20061;-80
2021/08/29 07:29:48;;;;;;;19.02;13.68;;;;;;;14.94;73.64;102361.91;5032317;28;20081;-80
2021/08/29 07:32:14;;;;;;;20.63;12.90;;;;;;;15.01;73.43;102353.81;5031764;28;20045;-80
2021/08/29 07:34:41;;;;;;;18.55;13.13;;;;;;;15.16;72.59;102349.84;5032328;28;20081;-80
2021/08/29 07:37:07;;;;;;;21.63;13.60;;;;;;;15.20;73.18;102369.03;5020451;28;20060;-80
2021/08/29 07:39:33;;;;;;;19.52;13.13;;;;;;;15.33;73.28;102375.63;5013566;28;20061;-81
2021/08/29 07:41:59;;;;;;;23.05;15.23;;;;;;;15.36;72.60;102370.25;5027868;28;20076;-81
2021/08/29 07:44:25;;;;;;;21.38;14.70;;;;;;;15.23;73.25;102365.44;5032731;28;20072;-81
2021/08/29 07:46:51;;;;;;;23.20;15.35;;;;;;;15.25;73.16;102355.75;5032724;28;20482;-80
2021/08/29 07:49:17;;;;;;;20.15;14.27;;;;;;;15.48;72.34;102360.28;5014332;28;20047;-81
2021/08/29 07:51:43;;;;;;;21.58;15.80;;;;;;;15.75;71.69;102362.91;5021509;28;20041;-81
2021/08/29 07:54:09;;;;;;;22.92;16.42;;;;;;;15.54;72.13;102362.72;5032115;28;20077;-81
2021/08/29 07:56:35;;;;;;;23.30;17.20;;;;;;;15.53;72.25;102375.00;5034149;28;20049;-81
2021/08/29 07:59:01;;;;;;;23.80;15.77;;;;;;;15.57;72.43;102380.16;5018825;28;20041;-81
2021/08/29 08:01:27;;;;;;;25.30;17.92;;;;;;;15.55;72.54;102372.34;5031357;28;20068;-81
2021/08/29 08:03:53;;;;;;;25.63;17.42;;;;;;;15.57;72.60;102378.38;5038631;28;20417;-81
2021/08/29 08:06:19;;;;;;;26.90;17.10;;;;;;;15.56;72.53;102379.28;5037206;28;20190;-81
2021/08/29 08:08:45;;;;;;;22.92;16.45;;;;;;;15.52;72.55;102365.38;5036590;28;20046;-81
2021/08/29 08:11:11;;;;;;;24.88;17.02;;;;;;;15.77;72.23;102382.13;5018845;28;20111;-81
2021/08/29 08:13:37;;;;;;;23.77;17.55;;;;;;;15.64;72.28;102371.16;5036693;28;20045;-81
2021/08/29 08:16:03;;;;;;;26.80;17.13;;;;;;;15.77;71.75;102382.13;5036678;28;20089;-81
2021/08/29 08:18:30;;;;;;;26.23;18.75;;;;;;;15.59;72.00;102362.56;5025439;28;20056;-79
2021/08/29 08:20:57;;;;;;;27.17;17.92;;;;;;;15.73;72.07;102378.75;5058827;28;20093;-80
2021/08/29 08:23:23;;;;;;;21.95;16.05;;;;;;;15.68;71.80;102365.75;5056789;28;20037;-80
2021/08/29 08:25:49;;;;;;;25.80;17.40;;;;;;;15.61;72.08;102382.66;5041956;28;20060;-80
2021/08/29 08:28:15;;;;;;;24.40;17.17;;;;;;;15.72;72.10;102384.94;5037490;28;20072;-81
2021/08/29 08:30:41;;;;;;;25.90;18.15;;;;;;;15.65;72.10;102386.06;5021765;28;20046;-80
2021/08/29 08:33:07;;;;;;;26.70;18.48;;;;;;;15.64;71.97;102369.38;5021042;28;20100;-80
2021/08/29 08:35:33;;;;;;;24.20;15.90;;;;;;;15.82;71.86;102373.22;5038269;28;20049;-80
2021/08/29 08:37:59;;;;;;;24.63;16.58;;;;;;;15.91;71.48;102363.28;5039538;28;20049;-76
2021/08/29 08:40:25;;;;;;;27.67;18.73;;;;;;;16.01;70.85;102354.16;5055348;28;20041;-80
2021/08/29 08:42:51;;;;;;;24.52;16.45;;;;;;;16.13;71.05;102361.63;5055189;28;20053;-80
2021/08/29 08:45:17;;;;;;;26.25;17.20;;;;;;;16.35;70.46;102374.03;5039442;28;20050;-81
2021/08/29 08:47:44;;;;;;;26.92;17.13;;;;;;;16.57;70.07;102365.34;5036195;28;20418;-80
2021/08/29 08:50:12;;;;;;;30.13;19.15;;;;;;;16.67;69.35;102369.34;5035974;28;20042;-81
2021/08/29 08:52:39;;;;;;;23.25;16.60;;;;;;;16.72;69.27;102364.81;5035879;28;20052;-80
2021/08/29 08:55:06;;;;;;;26.63;17.85;;;;;;;17.00;68.50;102363.75;5035553;28;20041;-80
2021/08/29 08:57:33;;;;;;;28.73;17.63;;;;;;;17.08;68.38;102364.31;5035589;28;20053;-81
2021/08/29 08:59:59;;;;;;;25.20;17.88;;;;;;;17.11;68.20;102358.94;5017986;28;20052;-81
2021/08/29 09:02:25;;;;;;;23.60;17.08;;;;;;;17.06;67.96;102339.78;5035605;28;20513;-81
2021/08/29 09:04:52;;;;;;;23.33;18.23;;;;;;;17.35;67.76;102355.38;5036098;28;20125;-81
2021/08/29 09:07:19;;;;;;;25.35;17.58;;;;;;;17.29;67.87;102351.19;5036101;28;20045;-81
2021/08/29 09:09:45;;;;;;;24.52;18.30;;;;;;;17.35;67.63;102339.53;5035650;28;20049;-81
2021/08/29 09:12:12;;;;;;;25.80;19.00;;;;;;;17.36;67.46;102357.97;5035318;28;20053;-81
2021/08/29 09:14:40;;;;;;;26.42;19.10;;;;;;;17.35;67.93;102358.03;5035503;28;20478;-81
2021/08/29 09:17:26;;;;;;;25.60;19.23;;;;;;;17.43;67.48;102353.28;5035192;28;20053;-81
2021/08/29 09:20:28;;;;;;;25.88;18.90;;;;;;;17.35;67.36;102358.03;5035483;28;20041;-81
2021/08/29 09:23:00;;;;;;;24.45;18.95;;;;;;;17.42;67.44;102360.34;5035188;28;20482;-81
2021/08/29 09:25:28;;;;;;;25.75;18.42;;;;;;;17.52;66.72;102350.25;5035604;28;20046;-81
2021/08/29 09:27:56;;;;;;;26.02;18.23;;;;;;;17.54;67.29;102353.72;5035071;28;20056;-81
2021/08/29 09:30:24;;;;;;;24.35;16.90;;;;;;;17.73;66.41;102363.50;5035340;28;20045;-81
2021/08/29 09:32:51;;;;;;;24.52;17.27;;;;;;;17.44;66.27;102355.88;5035102;28;20124;-81
2021/08/29 09:35:18;;;;;;;23.15;17.67;;;;;;;17.42;66.54;102356.84;5034886;28;20046;-81
2021/08/29 09:37:44;;;;;;;24.25;17.75;;;;;;;17.53;65.77;102354.63;5035312;28;20072;-81
2021/08/29 09:40:16;;;;;;;25.52;18.10;;;;;;;17.76;65.39;102358.09;5034846;28;20046;-81
2021/08/29 09:42:43;;;;;;;22.25;16.95;;;;;;;17.85;64.81;102349.78;5035290;28;20054;-81
2021/08/29 09:45:10;;;;;;;22.25;17.05;;;;;;;18.13;64.46;102350.41;5034980;28;20049;-81
2021/08/29 09:47:36;;;;;;;19.63;15.55;;;;;;;18.13;63.24;102334.56;5035030;28;20049;-81
2021/08/29 09:50:06;;;;;;;20.45;15.25;;;;;;;18.03;63.83;102352.59;5028252;28;20084;-81
2021/08/29 09:52:32;;;;;;;21.30;15.23;;;;;;;17.74;64.14;102304.47;5015203;28;20069;-81
2021/08/29 09:54:58;;;;;;;17.58;13.52;;;;;;;17.70;63.22;102308.16;5014941;28;20046;-81
2021/08/29 09:57:24;;;;;;;19.08;14.02;;;;;;;17.66;63.18;102348.84;5026155;28;20049;-81
2021/08/29 09:59:52;;;;;;;19.42;13.95;;;;;;;17.50;63.98;102353.91;5034677;28;20061;-81
2021/08/29 10:02:24;;;;;;;18.05;13.45;;;;;;;17.75;63.46;102351.09;5034695;28;20052;-81
2021/08/29 10:05:19;;;;;;;19.30;12.88;;;;;;;18.51;61.27;102348.69;5016737;28;20534;-82
2021/08/29 10:08:11;;;;;;;16.65;12.45;;;;;;;18.91;58.48;102347.75;5034122;28;20111;-81
2021/08/29 10:10:40;;;;;;;14.93;12.18;;;;;;;18.85;58.24;102346.28;5033719;28;20435;-81
2021/08/29 10:13:07;;;;;;;18.23;12.45;;;;;;;19.25;57.78;102347.06;5033956;28;20057;-81
2021/08/29 10:15:34;;;;;;;16.42;11.40;;;;;;;19.45;55.77;102346.06;5034355;28;20152;-81
2021/08/29 10:18:01;;;;;;;13.98;10.73;;;;;;;19.38;55.79;102334.06;5034117;28;20457;-81
2021/08/29 10:20:31;;;;;;;14.30;11.90;;;;;;;19.77;54.78;102332.13;5034601;28;20054;-81
2021/08/29 10:22:58;;;;;;;15.20;11.50;;;;;;;20.02;53.94;102326.47;5034233;28;20049;-81
2021/08/29 10:25:24;;;;;;;16.58;11.93;;;;;;;19.95;54.06;102317.97;5033988;28;20046;-81
2021/08/29 10:27:59;;;;;;;18.48;12.70;;;;;;;19.91;55.00;102328.78;5033315;28;20068;-81
2021/08/29 10:30:27;;;;;;;18.48;11.93;;;;;;;19.63;54.74;102339.00;5014317;28;20045;-82
2021/08/29 10:32:57;;;;;;;16.77;10.98;;;;;;;19.27;53.61;102341.69;5014339;28;20052;-81
2021/08/29 10:35:23;;;;;;;14.70;10.95;;;;;;;18.94;55.73;102337.94;5014909;28;20052;-81
2021/08/29 10:37:50;;;;;;;15.98;12.80;;;;;;;18.75;56.40;102323.81;4996985;28;20046;-81
2021/08/29 10:40:18;;;;;;;17.05;12.65;;;;;;;18.80;56.85;102322.69;5032176;28;20045;-81
2021/08/29 10:42:44;;;;;;;17.73;12.20;;;;;;;18.92;57.34;102339.81;5054256;28;20042;-81
2021/08/29 10:45:12;;;;;;;18.17;12.90;;;;;;;18.64;58.47;102346.34;5056951;28;20061;-80
2021/08/29 10:47:43;;;;;;;19.05;12.63;;;;;;;18.46;59.60;102345.41;5028274;28;20080;-81
2021/08/29 10:50:15;;;;;;;21.67;12.85;;;;;;;18.46;60.16;102348.03;5035493;28;20045;-81
2021/08/29 10:52:44;;;;;;;20.48;13.85;;;;;;;18.53;60.64;102330.97;5035137;28;20103;-81
2021/08/29 10:55:15;;;;;;;17.85;13.70;;;;;;;18.53;60.05;102330.97;5016146;28;20075;-82
2021/08/29 10:57:43;;;;;;;19.38;14.13;;;;;;;18.61;59.53;102341.19;5033405;28;20050;-81
2021/08/29 11:00:20;;;;;;;16.52;12.52;;;;;;;18.64;59.48;102338.41;5034830;28;20049;-80
2021/08/29 11:02:49;;;;;;;17.92;12.20;;;;;;;19.04;58.58;102336.56;5046563;28;20056;-80
2021/08/29 11:05:42;;;;;;;18.23;13.30;;;;;;;19.26;57.38;102342.59;5042016;28;20049;-80
2021/08/29 11:08:26;;;;;;;17.83;13.35;;;;;;;19.20;57.18;102326.09;5034071;28;20119;-81
2021/08/29 11:10:55;;;;;;;15.98;13.05;;;;;;;19.25;57.69;102336.47;5033494;28;20049;-81